sensor_id;sensor_type;location;lat;lon;timestamp;temperature;humidity
75489;HTU21D;64069;46.396;48.102;2024-02-21T00:00:57;-4.99;93.18
75489;HTU21D;64069;46.396;48.102;2024-02-21T00:03:23;-5.17;93.21
75489;HTU21D;64069;46.396;48.102;2024-02-21T00:05:48;-5.37;93.24
75489;HTU21D;64069;46.396;48.102;2024-02-21T00:08:15;-5.53;93.30
75489;HTU21D;64069;46.396;48.102;2024-02-21T00:10:40;-5.69;93.34
75489;HTU21D;64069;46.396;48.102;2024-02-21T00:13:07;-5.86;93.37
75489;HTU21D;64069;46.396;48.102;2024-02-21T00:15:33;-6.00;93.38
75489;HTU21D;64069;46.396;48.102;2024-02-21T00:17:59;-6.14;93.40
75489;HTU21D;64069;46.396;48.102;2024-02-21T00:20:24;-6.24;93.40
75489;HTU21D;64069;46.396;48.102;2024-02-21T00:22:51;-6.35;93.42
75489;HTU21D;64069;46.396;48.102;2024-02-21T00:25:18;-6.45;93.42
75489;HTU21D;64069;46.396;48.102;2024-02-21T00:27:44;-6.53;93.43
75489;HTU21D;64069;46.396;48.102;2024-02-21T00:30:10;-6.63;93.41
75489;HTU21D;64069;46.396;48.102;2024-02-21T00:32:37;-6.72;93.40
75489;HTU21D;64069;46.396;48.102;2024-02-21T00:35:03;-6.79;93.40
75489;HTU21D;64069;46.396;48.102;2024-02-21T00:37:29;-6.88;93.38
75489;HTU21D;64069;46.396;48.102;2024-02-21T00:39:55;-6.97;93.40
75489;HTU21D;64069;46.396;48.102;2024-02-21T00:42:21;-7.05;93.43
75489;HTU21D;64069;46.396;48.102;2024-02-21T00:44:47;-7.15;93.42
75489;HTU21D;64069;46.396;48.102;2024-02-21T00:47:13;-7.23;93.44
75489;HTU21D;64069;46.396;48.102;2024-02-21T00:49:39;-7.31;93.46
75489;HTU21D;64069;46.396;48.102;2024-02-21T00:52:05;-7.38;93.48
75489;HTU21D;64069;46.396;48.102;2024-02-21T00:54:31;-7.46;93.44
75489;HTU21D;64069;46.396;48.102;2024-02-21T00:56:57;-7.53;93.49
75489;HTU21D;64069;46.396;48.102;2024-02-21T00:59:23;-7.59;93.50
75489;HTU21D;64069;46.396;48.102;2024-02-21T01:01:49;-7.65;93.49
75489;HTU21D;64069;46.396;48.102;2024-02-21T01:04:15;-7.68;93.46
75489;HTU21D;64069;46.396;48.102;2024-02-21T01:06:41;-7.74;93.44
75489;HTU21D;64069;46.396;48.102;2024-02-21T01:09:10;-7.80;93.44
75489;HTU21D;64069;46.396;48.102;2024-02-21T01:11:37;-7.86;93.45
75489;HTU21D;64069;46.396;48.102;2024-02-21T01:14:02;-7.92;93.46
75489;HTU21D;64069;46.396;48.102;2024-02-21T01:16:28;-7.96;93.46
75489;HTU21D;64069;46.396;48.102;2024-02-21T01:18:54;-8.00;93.43
75489;HTU21D;64069;46.396;48.102;2024-02-21T01:21:21;-8.05;93.44
75489;HTU21D;64069;46.396;48.102;2024-02-21T01:23:47;-8.08;93.47
75489;HTU21D;64069;46.396;48.102;2024-02-21T01:26:13;-8.13;93.51
75489;HTU21D;64069;46.396;48.102;2024-02-21T01:28:41;-8.15;93.51
75489;HTU21D;64069;46.396;48.102;2024-02-21T01:31:07;-8.21;93.50
75489;HTU21D;64069;46.396;48.102;2024-02-21T01:33:33;-8.27;93.54
75489;HTU21D;64069;46.396;48.102;2024-02-21T01:36:02;-8.34;93.55
75489;HTU21D;64069;46.396;48.102;2024-02-21T01:38:28;-8.39;93.55
75489;HTU21D;64069;46.396;48.102;2024-02-21T01:40:55;-8.42;93.55
75489;HTU21D;64069;46.396;48.102;2024-02-21T01:43:22;-8.46;93.59
75489;HTU21D;64069;46.396;48.102;2024-02-21T01:45:53;-8.53;93.60
75489;HTU21D;64069;46.396;48.102;2024-02-21T01:48:21;-8.58;93.62
75489;HTU21D;64069;46.396;48.102;2024-02-21T01:50:49;-8.64;93.65
75489;HTU21D;64069;46.396;48.102;2024-02-21T01:53:23;-8.68;93.75
75489;HTU21D;64069;46.396;48.102;2024-02-21T01:55:49;-8.73;93.78
75489;HTU21D;64069;46.396;48.102;2024-02-21T01:58:16;-8.78;93.79
75489;HTU21D;64069;46.396;48.102;2024-02-21T02:00:43;-8.81;93.78
75489;HTU21D;64069;46.396;48.102;2024-02-21T02:03:13;-8.85;93.78
75489;HTU21D;64069;46.396;48.102;2024-02-21T02:05:47;-8.89;93.76
75489;HTU21D;64069;46.396;48.102;2024-02-21T02:08:14;-8.92;93.73
75489;HTU21D;64069;46.396;48.102;2024-02-21T02:10:41;-8.98;93.75
75489;HTU21D;64069;46.396;48.102;2024-02-21T02:13:07;-9.01;93.75
75489;HTU21D;64069;46.396;48.102;2024-02-21T02:15:48;-9.07;93.74
75489;HTU21D;64069;46.396;48.102;2024-02-21T02:18:15;-9.10;93.76
75489;HTU21D;64069;46.396;48.102;2024-02-21T02:20:41;-9.13;93.74
75489;HTU21D;64069;46.396;48.102;2024-02-21T02:23:10;-9.15;93.79
75489;HTU21D;64069;46.396;48.102;2024-02-21T02:25:37;-9.17;93.76
75489;HTU21D;64069;46.396;48.102;2024-02-21T02:28:05;-9.19;93.74
75489;HTU21D;64069;46.396;48.102;2024-02-21T02:30:35;-9.23;93.72
75489;HTU21D;64069;46.396;48.102;2024-02-21T02:33:05;-9.26;93.72
75489;HTU21D;64069;46.396;48.102;2024-02-21T02:35:32;-9.28;93.68
75489;HTU21D;64069;46.396;48.102;2024-02-21T02:37:58;-9.30;93.69
75489;HTU21D;64069;46.396;48.102;2024-02-21T02:40:24;-9.31;93.67
75489;HTU21D;64069;46.396;48.102;2024-02-21T02:42:51;-9.32;93.65
75489;HTU21D;64069;46.396;48.102;2024-02-21T02:45:17;-9.37;93.63
75489;HTU21D;64069;46.396;48.102;2024-02-21T02:47:47;-9.38;93.62
75489;HTU21D;64069;46.396;48.102;2024-02-21T02:50:13;-9.39;93.59
75489;HTU21D;64069;46.396;48.102;2024-02-21T02:52:39;-9.43;93.59
75489;HTU21D;64069;46.396;48.102;2024-02-21T02:55:06;-9.45;93.58
75489;HTU21D;64069;46.396;48.102;2024-02-21T02:57:32;-9.45;93.59
75489;HTU21D;64069;46.396;48.102;2024-02-21T02:59:58;-9.47;93.60
75489;HTU21D;64069;46.396;48.102;2024-02-21T03:02:24;-9.48;93.58
75489;HTU21D;64069;46.396;48.102;2024-02-21T03:04:50;-9.51;93.56
75489;HTU21D;64069;46.396;48.102;2024-02-21T03:07:16;-9.51;93.56
75489;HTU21D;64069;46.396;48.102;2024-02-21T03:09:42;-9.52;93.56
75489;HTU21D;64069;46.396;48.102;2024-02-21T03:12:09;-9.53;93.56
75489;HTU21D;64069;46.396;48.102;2024-02-21T03:14:35;-9.54;93.55
75489;HTU21D;64069;46.396;48.102;2024-02-21T03:17:02;-9.56;93.56
75489;HTU21D;64069;46.396;48.102;2024-02-21T03:19:28;-9.57;93.53
75489;HTU21D;64069;46.396;48.102;2024-02-21T03:21:55;-9.58;93.50
75489;HTU21D;64069;46.396;48.102;2024-02-21T03:24:21;-9.62;93.49
75489;HTU21D;64069;46.396;48.102;2024-02-21T03:26:47;-9.64;93.49
75489;HTU21D;64069;46.396;48.102;2024-02-21T03:29:15;-9.67;93.46
75489;HTU21D;64069;46.396;48.102;2024-02-21T03:31:41;-9.71;93.45
75489;HTU21D;64069;46.396;48.102;2024-02-21T03:34:07;-9.72;93.47
75489;HTU21D;64069;46.396;48.102;2024-02-21T03:36:34;-9.73;93.49
75489;HTU21D;64069;46.396;48.102;2024-02-21T03:38:59;-9.74;93.47
75489;HTU21D;64069;46.396;48.102;2024-02-21T03:41:27;-9.75;93.49
75489;HTU21D;64069;46.396;48.102;2024-02-21T03:43:53;-9.73;93.46
75489;HTU21D;64069;46.396;48.102;2024-02-21T03:46:19;-9.72;93.42
75489;HTU21D;64069;46.396;48.102;2024-02-21T03:48:45;-9.72;93.37
75489;HTU21D;64069;46.396;48.102;2024-02-21T03:51:11;-9.71;93.35
75489;HTU21D;64069;46.396;48.102;2024-02-21T03:53:37;-9.70;93.32
75489;HTU21D;64069;46.396;48.102;2024-02-21T03:56:04;-9.69;93.30
75489;HTU21D;64069;46.396;48.102;2024-02-21T03:58:30;-9.68;93.27
75489;HTU21D;64069;46.396;48.102;2024-02-21T04:00:56;-9.63;93.26
75489;HTU21D;64069;46.396;48.102;2024-02-21T04:03:22;-9.56;93.27
75489;HTU21D;64069;46.396;48.102;2024-02-21T04:05:48;-9.45;93.25
75489;HTU21D;64069;46.396;48.102;2024-02-21T04:08:14;-9.36;93.17
75489;HTU21D;64069;46.396;48.102;2024-02-21T04:10:40;-9.26;93.08
75489;HTU21D;64069;46.396;48.102;2024-02-21T04:13:06;-9.24;92.98
75489;HTU21D;64069;46.396;48.102;2024-02-21T04:15:33;-9.24;92.91
75489;HTU21D;64069;46.396;48.102;2024-02-21T04:17:59;-9.23;92.96
75489;HTU21D;64069;46.396;48.102;2024-02-21T04:20:25;-9.17;93.02
75489;HTU21D;64069;46.396;48.102;2024-02-21T04:22:51;-9.14;93.02
75489;HTU21D;64069;46.396;48.102;2024-02-21T04:25:17;-9.04;93.12
75489;HTU21D;64069;46.396;48.102;2024-02-21T04:27:44;-8.89;93.11
75489;HTU21D;64069;46.396;48.102;2024-02-21T04:30:11;-8.74;93.08
75489;HTU21D;64069;46.396;48.102;2024-02-21T04:32:37;-8.58;92.98
75489;HTU21D;64069;46.396;48.102;2024-02-21T04:35:03;-8.44;92.86
75489;HTU21D;64069;46.396;48.102;2024-02-21T04:37:29;-8.18;92.92
75489;HTU21D;64069;46.396;48.102;2024-02-21T04:39:56;-7.91;92.82
75489;HTU21D;64069;46.396;48.102;2024-02-21T04:42:22;-7.66;92.59
75489;HTU21D;64069;46.396;48.102;2024-02-21T04:44:48;-7.47;92.37
75489;HTU21D;64069;46.396;48.102;2024-02-21T04:47:14;-7.32;92.14
75489;HTU21D;64069;46.396;48.102;2024-02-21T04:49:40;-7.25;91.96
75489;HTU21D;64069;46.396;48.102;2024-02-21T04:52:06;-7.27;91.79
75489;HTU21D;64069;46.396;48.102;2024-02-21T04:54:32;-7.29;91.72
75489;HTU21D;64069;46.396;48.102;2024-02-21T04:57:00;-7.32;91.66
75489;HTU21D;64069;46.396;48.102;2024-02-21T04:59:26;-7.21;91.91
75489;HTU21D;64069;46.396;48.102;2024-02-21T05:01:52;-6.98;91.97
75489;HTU21D;64069;46.396;48.102;2024-02-21T05:04:18;-6.76;91.94
75489;HTU21D;64069;46.396;48.102;2024-02-21T05:06:44;-6.53;91.62
75489;HTU21D;64069;46.396;48.102;2024-02-21T05:09:10;-6.59;91.15
75489;HTU21D;64069;46.396;48.102;2024-02-21T05:11:37;-6.68;91.08
75489;HTU21D;64069;46.396;48.102;2024-02-21T05:14:04;-6.64;91.15
75489;HTU21D;64069;46.396;48.102;2024-02-21T05:16:31;-6.59;91.11
75489;HTU21D;64069;46.396;48.102;2024-02-21T05:18:57;-6.36;91.34
75489;HTU21D;64069;46.396;48.102;2024-02-21T05:21:23;-6.22;90.93
75489;HTU21D;64069;46.396;48.102;2024-02-21T05:23:50;-6.09;90.86
75489;HTU21D;64069;46.396;48.102;2024-02-21T05:26:20;-6.03;90.58
75489;HTU21D;64069;46.396;48.102;2024-02-21T05:28:47;-6.11;90.31
75489;HTU21D;64069;46.396;48.102;2024-02-21T05:31:13;-5.96;90.50
75489;HTU21D;64069;46.396;48.102;2024-02-21T05:33:40;-5.72;90.52
75489;HTU21D;64069;46.396;48.102;2024-02-21T05:36:06;-5.79;89.95
75489;HTU21D;64069;46.396;48.102;2024-02-21T05:38:33;-5.74;90.17
75489;HTU21D;64069;46.396;48.102;2024-02-21T05:40:59;-5.54;90.34
75489;HTU21D;64069;46.396;48.102;2024-02-21T05:43:25;-5.33;90.22
75489;HTU21D;64069;46.396;48.102;2024-02-21T05:45:51;-5.02;90.08
75489;HTU21D;64069;46.396;48.102;2024-02-21T05:48:17;-4.71;89.92
75489;HTU21D;64069;46.396;48.102;2024-02-21T05:50:43;-4.40;89.70
75489;HTU21D;64069;46.396;48.102;2024-02-21T05:53:09;-4.15;89.55
75489;HTU21D;64069;46.396;48.102;2024-02-21T05:55:36;-4.22;88.92
75489;HTU21D;64069;46.396;48.102;2024-02-21T05:58:03;-4.30;89.02
75489;HTU21D;64069;46.396;48.102;2024-02-21T06:00:29;-4.37;88.91
75489;HTU21D;64069;46.396;48.102;2024-02-21T06:02:55;-4.29;89.07
75489;HTU21D;64069;46.396;48.102;2024-02-21T06:05:21;-4.11;89.17
75489;HTU21D;64069;46.396;48.102;2024-02-21T06:07:47;-3.79;89.15
75489;HTU21D;64069;46.396;48.102;2024-02-21T06:10:13;-3.60;88.70
75489;HTU21D;64069;46.396;48.102;2024-02-21T06:12:39;-3.52;88.14
75489;HTU21D;64069;46.396;48.102;2024-02-21T06:15:06;-3.57;87.57
75489;HTU21D;64069;46.396;48.102;2024-02-21T06:17:32;-3.50;87.41
75489;HTU21D;64069;46.396;48.102;2024-02-21T06:19:58;-3.49;86.92
75489;HTU21D;64069;46.396;48.102;2024-02-21T06:22:24;-3.46;86.42
75489;HTU21D;64069;46.396;48.102;2024-02-21T06:24:50;-3.25;86.48
75489;HTU21D;64069;46.396;48.102;2024-02-21T06:27:16;-3.13;86.04
75489;HTU21D;64069;46.396;48.102;2024-02-21T06:29:42;-3.04;85.49
75489;HTU21D;64069;46.396;48.102;2024-02-21T06:32:09;-3.13;84.74
75489;HTU21D;64069;46.396;48.102;2024-02-21T06:34:35;-3.16;84.49
75489;HTU21D;64069;46.396;48.102;2024-02-21T06:37:01;-3.04;84.55
75489;HTU21D;64069;46.396;48.102;2024-02-21T06:39:27;-2.86;84.45
75489;HTU21D;64069;46.396;48.102;2024-02-21T06:41:54;-2.73;83.81
75489;HTU21D;64069;46.396;48.102;2024-02-21T06:44:21;-2.78;83.23
75489;HTU21D;64069;46.396;48.102;2024-02-21T06:46:47;-2.80;83.20
75489;HTU21D;64069;46.396;48.102;2024-02-21T06:49:13;-2.69;82.90
75489;HTU21D;64069;46.396;48.102;2024-02-21T06:51:43;-2.54;82.67
75489;HTU21D;64069;46.396;48.102;2024-02-21T06:54:09;-2.64;81.98
75489;HTU21D;64069;46.396;48.102;2024-02-21T06:56:40;-2.58;82.21
75489;HTU21D;64069;46.396;48.102;2024-02-21T06:59:06;-2.56;81.65
75489;HTU21D;64069;46.396;48.102;2024-02-21T07:01:32;-2.52;81.59
75489;HTU21D;64069;46.396;48.102;2024-02-21T07:03:58;-2.38;81.43
75489;HTU21D;64069;46.396;48.102;2024-02-21T07:06:24;-2.28;80.65
75489;HTU21D;64069;46.396;48.102;2024-02-21T07:08:50;-2.10;80.87
75489;HTU21D;64069;46.396;48.102;2024-02-21T07:11:19;-1.93;80.68
75489;HTU21D;64069;46.396;48.102;2024-02-21T07:13:44;-1.82;80.54
75489;HTU21D;64069;46.396;48.102;2024-02-21T07:16:10;-1.75;80.49
75489;HTU21D;64069;46.396;48.102;2024-02-21T07:18:37;-1.64;80.32
75489;HTU21D;64069;46.396;48.102;2024-02-21T07:21:03;-1.62;80.07
75489;HTU21D;64069;46.396;48.102;2024-02-21T07:23:29;-1.57;79.85
75489;HTU21D;64069;46.396;48.102;2024-02-21T07:25:55;-1.56;79.45
75489;HTU21D;64069;46.396;48.102;2024-02-21T07:28:21;-1.56;79.09
75489;HTU21D;64069;46.396;48.102;2024-02-21T07:30:47;-1.53;78.52
75489;HTU21D;64069;46.396;48.102;2024-02-21T07:33:13;-1.44;78.09
75489;HTU21D;64069;46.396;48.102;2024-02-21T07:35:39;-1.50;77.56
75489;HTU21D;64069;46.396;48.102;2024-02-21T07:38:07;-1.50;77.72
75489;HTU21D;64069;46.396;48.102;2024-02-21T07:40:38;-1.34;78.05
75489;HTU21D;64069;46.396;48.102;2024-02-21T07:43:04;-1.14;77.72
75489;HTU21D;64069;46.396;48.102;2024-02-21T07:45:30;-1.18;77.25
75489;HTU21D;64069;46.396;48.102;2024-02-21T07:47:56;-1.25;77.22
75489;HTU21D;64069;46.396;48.102;2024-02-21T07:50:22;-1.12;77.27
75489;HTU21D;64069;46.396;48.102;2024-02-21T07:52:48;-1.19;75.85
75489;HTU21D;64069;46.396;48.102;2024-02-21T07:55:14;-1.20;76.05
75489;HTU21D;64069;46.396;48.102;2024-02-21T07:57:40;-1.18;76.23
75489;HTU21D;64069;46.396;48.102;2024-02-21T08:00:07;-1.17;76.04
75489;HTU21D;64069;46.396;48.102;2024-02-21T08:02:41;-1.05;75.82
75489;HTU21D;64069;46.396;48.102;2024-02-21T08:05:08;-1.05;75.54
75489;HTU21D;64069;46.396;48.102;2024-02-21T08:07:34;-0.96;75.54
75489;HTU21D;64069;46.396;48.102;2024-02-21T08:10:00;-0.97;75.59
75489;HTU21D;64069;46.396;48.102;2024-02-21T08:12:26;-0.96;75.44
75489;HTU21D;64069;46.396;48.102;2024-02-21T08:14:52;-0.99;75.11
75489;HTU21D;64069;46.396;48.102;2024-02-21T08:17:18;-1.12;74.91
75489;HTU21D;64069;46.396;48.102;2024-02-21T08:19:44;-1.28;74.66
75489;HTU21D;64069;46.396;48.102;2024-02-21T08:22:10;-1.32;74.49
75489;HTU21D;64069;46.396;48.102;2024-02-21T08:24:36;-1.26;74.64
75489;HTU21D;64069;46.396;48.102;2024-02-21T08:27:03;-1.19;74.45
75489;HTU21D;64069;46.396;48.102;2024-02-21T08:29:30;-1.26;74.19
75489;HTU21D;64069;46.396;48.102;2024-02-21T08:31:56;-1.21;74.31
75489;HTU21D;64069;46.396;48.102;2024-02-21T08:34:22;-1.10;74.49
75489;HTU21D;64069;46.396;48.102;2024-02-21T08:36:47;-0.97;74.22
75489;HTU21D;64069;46.396;48.102;2024-02-21T08:39:14;-0.93;74.12
75489;HTU21D;64069;46.396;48.102;2024-02-21T08:41:42;-0.90;74.06
75489;HTU21D;64069;46.396;48.102;2024-02-21T08:44:08;-0.99;73.42
75489;HTU21D;64069;46.396;48.102;2024-02-21T08:46:34;-1.03;73.75
75489;HTU21D;64069;46.396;48.102;2024-02-21T08:49:00;-1.01;73.29
75489;HTU21D;64069;46.396;48.102;2024-02-21T08:51:26;-0.98;73.18
75489;HTU21D;64069;46.396;48.102;2024-02-21T08:53:52;-0.94;73.03
75489;HTU21D;64069;46.396;48.102;2024-02-21T08:56:19;-1.00;72.77
75489;HTU21D;64069;46.396;48.102;2024-02-21T08:58:45;-1.09;72.74
75489;HTU21D;64069;46.396;48.102;2024-02-21T09:01:11;-1.03;72.30
75489;HTU21D;64069;46.396;48.102;2024-02-21T09:03:37;-1.01;72.16
75489;HTU21D;64069;46.396;48.102;2024-02-21T09:06:07;-0.95;72.16
75489;HTU21D;64069;46.396;48.102;2024-02-21T09:08:34;-0.87;72.22
75489;HTU21D;64069;46.396;48.102;2024-02-21T09:11:00;-0.80;72.12
75489;HTU21D;64069;46.396;48.102;2024-02-21T09:13:27;-0.83;71.91
75489;HTU21D;64069;46.396;48.102;2024-02-21T09:15:53;-0.82;71.52
75489;HTU21D;64069;46.396;48.102;2024-02-21T09:18:19;-0.81;71.17
75489;HTU21D;64069;46.396;48.102;2024-02-21T09:20:45;-0.76;71.27
75489;HTU21D;64069;46.396;48.102;2024-02-21T09:25:41;-0.82;70.33
75489;HTU21D;64069;46.396;48.102;2024-02-21T09:28:07;-0.82;70.35
75489;HTU21D;64069;46.396;48.102;2024-02-21T09:30:33;-0.72;70.45
75489;HTU21D;64069;46.396;48.102;2024-02-21T09:32:59;-0.67;70.42
75489;HTU21D;64069;46.396;48.102;2024-02-21T09:35:26;-0.61;70.11
75489;HTU21D;64069;46.396;48.102;2024-02-21T09:37:54;-0.51;70.32
75489;HTU21D;64069;46.396;48.102;2024-02-21T09:40:20;-0.49;70.31
75489;HTU21D;64069;46.396;48.102;2024-02-21T09:42:47;-0.45;70.48
75489;HTU21D;64069;46.396;48.102;2024-02-21T09:45:21;-0.37;70.45
75489;HTU21D;64069;46.396;48.102;2024-02-21T09:50:47;-0.36;69.85
75489;HTU21D;64069;46.396;48.102;2024-02-21T09:53:15;-0.41;69.74
75489;HTU21D;64069;46.396;48.102;2024-02-21T09:55:43;-0.46;69.05
75489;HTU21D;64069;46.396;48.102;2024-02-21T09:58:09;-0.49;68.91
75489;HTU21D;64069;46.396;48.102;2024-02-21T10:00:36;-0.49;69.27
75489;HTU21D;64069;46.396;48.102;2024-02-21T10:03:03;-0.50;68.92
75489;HTU21D;64069;46.396;48.102;2024-02-21T10:05:35;-0.38;69.16
75489;HTU21D;64069;46.396;48.102;2024-02-21T10:08:02;-0.37;68.54
75489;HTU21D;64069;46.396;48.102;2024-02-21T10:10:28;-0.40;69.00
75489;HTU21D;64069;46.396;48.102;2024-02-21T10:12:56;-0.38;68.49
75489;HTU21D;64069;46.396;48.102;2024-02-21T10:15:25;-0.35;68.97
75489;HTU21D;64069;46.396;48.102;2024-02-21T10:18:01;-0.30;68.96
75489;HTU21D;64069;46.396;48.102;2024-02-21T10:20:32;-0.29;68.84
75489;HTU21D;64069;46.396;48.102;2024-02-21T10:23:05;-0.38;68.84
75489;HTU21D;64069;46.396;48.102;2024-02-21T10:25:35;-0.27;69.17
75489;HTU21D;64069;46.396;48.102;2024-02-21T10:28:07;-0.25;68.39
75489;HTU21D;64069;46.396;48.102;2024-02-21T10:30:33;-0.38;68.26
75489;HTU21D;64069;46.396;48.102;2024-02-21T10:32:59;-0.42;68.26
75489;HTU21D;64069;46.396;48.102;2024-02-21T10:35:29;-0.43;68.36
75489;HTU21D;64069;46.396;48.102;2024-02-21T10:37:56;-0.40;68.38
75489;HTU21D;64069;46.396;48.102;2024-02-21T10:40:27;-0.40;67.62
75489;HTU21D;64069;46.396;48.102;2024-02-21T10:42:58;-0.38;67.81
75489;HTU21D;64069;46.396;48.102;2024-02-21T10:45:35;0.00;67.37
75489;HTU21D;64069;46.396;48.102;2024-02-21T10:48:11;-0.43;67.30
75489;HTU21D;64069;46.396;48.102;2024-02-21T10:50:57;-0.37;67.30
75489;HTU21D;64069;46.396;48.102;2024-02-21T10:53:45;-0.37;66.76
75489;HTU21D;64069;46.396;48.102;2024-02-21T10:56:42;-0.42;66.66
75489;HTU21D;64069;46.396;48.102;2024-02-21T10:59:09;-0.41;66.48
75489;HTU21D;64069;46.396;48.102;2024-02-21T11:01:35;-0.36;66.59
75489;HTU21D;64069;46.396;48.102;2024-02-21T11:04:06;-0.25;66.15
75489;HTU21D;64069;46.396;48.102;2024-02-21T11:06:36;-0.23;66.01
75489;HTU21D;64069;46.396;48.102;2024-02-21T11:11:33;-0.08;66.13
75489;HTU21D;64069;46.396;48.102;2024-02-21T11:14:06;-0.10;65.79
75489;HTU21D;64069;46.396;48.102;2024-02-21T11:16:37;-0.17;65.25
75489;HTU21D;64069;46.396;48.102;2024-02-21T11:19:08;-0.20;65.08
75489;HTU21D;64069;46.396;48.102;2024-02-21T11:21:36;-0.21;64.79
75489;HTU21D;64069;46.396;48.102;2024-02-21T11:24:04;-0.24;64.76
75489;HTU21D;64069;46.396;48.102;2024-02-21T11:26:31;-0.32;64.39
75489;HTU21D;64069;46.396;48.102;2024-02-21T11:29:01;-0.31;64.75
75489;HTU21D;64069;46.396;48.102;2024-02-21T11:31:44;-0.27;64.59
75489;HTU21D;64069;46.396;48.102;2024-02-21T11:34:13;-0.36;64.17
75489;HTU21D;64069;46.396;48.102;2024-02-21T11:36:50;-0.44;63.53
75489;HTU21D;64069;46.396;48.102;2024-02-21T11:39:21;-0.47;63.95
75489;HTU21D;64069;46.396;48.102;2024-02-21T11:44:30;-0.50;64.19
75489;HTU21D;64069;46.396;48.102;2024-02-21T11:46:56;-0.56;64.04
75489;HTU21D;64069;46.396;48.102;2024-02-21T11:49:25;-0.55;64.35
75489;HTU21D;64069;46.396;48.102;2024-02-21T11:52:02;-0.58;64.18
75489;HTU21D;64069;46.396;48.102;2024-02-21T11:54:33;-0.64;63.56
75489;HTU21D;64069;46.396;48.102;2024-02-21T11:57:00;-0.70;63.83
75489;HTU21D;64069;46.396;48.102;2024-02-21T11:59:29;-0.71;63.19
75489;HTU21D;64069;46.396;48.102;2024-02-21T12:01:56;-0.75;62.89
75489;HTU21D;64069;46.396;48.102;2024-02-21T12:04:23;-0.81;63.32
75489;HTU21D;64069;46.396;48.102;2024-02-21T12:06:55;-0.81;63.50
75489;HTU21D;64069;46.396;48.102;2024-02-21T12:09:22;-0.81;63.57
75489;HTU21D;64069;46.396;48.102;2024-02-21T12:11:57;-0.84;63.75
75489;HTU21D;64069;46.396;48.102;2024-02-21T12:14:25;-0.89;63.74
75489;HTU21D;64069;46.396;48.102;2024-02-21T12:16:50;-0.96;63.82
75489;HTU21D;64069;46.396;48.102;2024-02-21T12:19:17;-1.01;64.13
75489;HTU21D;64069;46.396;48.102;2024-02-21T12:21:43;-1.03;64.18
75489;HTU21D;64069;46.396;48.102;2024-02-21T12:24:21;-1.09;63.73
75489;HTU21D;64069;46.396;48.102;2024-02-21T12:26:50;-1.13;64.05
75489;HTU21D;64069;46.396;48.102;2024-02-21T12:29:18;-1.17;64.04
75489;HTU21D;64069;46.396;48.102;2024-02-21T12:31:44;-1.20;64.00
75489;HTU21D;64069;46.396;48.102;2024-02-21T12:34:10;-1.25;64.13
75489;HTU21D;64069;46.396;48.102;2024-02-21T12:36:46;-1.36;63.92
75489;HTU21D;64069;46.396;48.102;2024-02-21T12:39:15;-1.46;63.88
75489;HTU21D;64069;46.396;48.102;2024-02-21T12:41:42;-1.49;63.94
75489;HTU21D;64069;46.396;48.102;2024-02-21T12:44:10;-1.53;64.05
75489;HTU21D;64069;46.396;48.102;2024-02-21T12:46:39;-1.55;63.94
75489;HTU21D;64069;46.396;48.102;2024-02-21T12:49:08;-1.58;64.29
75489;HTU21D;64069;46.396;48.102;2024-02-21T12:51:34;-1.61;64.24
75489;HTU21D;64069;46.396;48.102;2024-02-21T12:54:01;-1.60;64.40
75489;HTU21D;64069;46.396;48.102;2024-02-21T12:56:28;-1.60;64.35
75489;HTU21D;64069;46.396;48.102;2024-02-21T12:58:57;-1.61;64.56
75489;HTU21D;64069;46.396;48.102;2024-02-21T13:01:23;-1.67;64.45
75489;HTU21D;64069;46.396;48.102;2024-02-21T13:03:49;-1.71;64.57
75489;HTU21D;64069;46.396;48.102;2024-02-21T13:06:15;-1.76;64.56
75489;HTU21D;64069;46.396;48.102;2024-02-21T13:08:41;-1.78;64.81
75489;HTU21D;64069;46.396;48.102;2024-02-21T13:11:07;-1.80;64.85
75489;HTU21D;64069;46.396;48.102;2024-02-21T13:13:33;-1.85;64.99
75489;HTU21D;64069;46.396;48.102;2024-02-21T13:15:59;-1.92;64.82
75489;HTU21D;64069;46.396;48.102;2024-02-21T13:18:25;-2.02;64.86
75489;HTU21D;64069;46.396;48.102;2024-02-21T13:20:51;-2.08;65.01
75489;HTU21D;64069;46.396;48.102;2024-02-21T13:23:17;-2.12;65.27
75489;HTU21D;64069;46.396;48.102;2024-02-21T13:25:43;-2.14;65.18
75489;HTU21D;64069;46.396;48.102;2024-02-21T13:28:11;-2.17;65.40
75489;HTU21D;64069;46.396;48.102;2024-02-21T13:30:37;-2.18;65.40
75489;HTU21D;64069;46.396;48.102;2024-02-21T13:33:03;-2.22;65.04
75489;HTU21D;64069;46.396;48.102;2024-02-21T13:35:29;-2.26;65.25
75489;HTU21D;64069;46.396;48.102;2024-02-21T13:37:55;-2.30;65.47
75489;HTU21D;64069;46.396;48.102;2024-02-21T13:40:21;-2.34;65.60
75489;HTU21D;64069;46.396;48.102;2024-02-21T13:42:47;-2.39;65.68
75489;HTU21D;64069;46.396;48.102;2024-02-21T13:45:14;-2.46;65.96
75489;HTU21D;64069;46.396;48.102;2024-02-21T13:47:40;-2.51;66.09
75489;HTU21D;64069;46.396;48.102;2024-02-21T13:50:06;-2.56;66.26
75489;HTU21D;64069;46.396;48.102;2024-02-21T13:52:37;-2.62;66.43
75489;HTU21D;64069;46.396;48.102;2024-02-21T13:55:03;-2.66;66.56
75489;HTU21D;64069;46.396;48.102;2024-02-21T13:57:29;-2.73;66.66
75489;HTU21D;64069;46.396;48.102;2024-02-21T13:59:55;-2.78;66.84
75489;HTU21D;64069;46.396;48.102;2024-02-21T14:02:21;-2.84;67.01
75489;HTU21D;64069;46.396;48.102;2024-02-21T14:04:47;-2.88;67.22
75489;HTU21D;64069;46.396;48.102;2024-02-21T14:07:13;-2.95;67.36
75489;HTU21D;64069;46.396;48.102;2024-02-21T14:09:39;-3.01;67.55
75489;HTU21D;64069;46.396;48.102;2024-02-21T14:12:05;-3.07;67.72
75489;HTU21D;64069;46.396;48.102;2024-02-21T14:14:38;-3.15;67.88
75489;HTU21D;64069;46.396;48.102;2024-02-21T14:17:04;-3.22;68.03
75489;HTU21D;64069;46.396;48.102;2024-02-21T14:19:30;-3.27;68.20
75489;HTU21D;64069;46.396;48.102;2024-02-21T14:21:56;-3.32;68.31
75489;HTU21D;64069;46.396;48.102;2024-02-21T14:24:23;-3.38;68.42
75489;HTU21D;64069;46.396;48.102;2024-02-21T14:26:49;-3.42;68.51
75489;HTU21D;64069;46.396;48.102;2024-02-21T14:29:15;-3.48;68.63
75489;HTU21D;64069;46.396;48.102;2024-02-21T14:31:41;-3.50;68.73
75489;HTU21D;64069;46.396;48.102;2024-02-21T14:34:08;-3.53;68.85
75489;HTU21D;64069;46.396;48.102;2024-02-21T14:36:34;-3.56;68.96
75489;HTU21D;64069;46.396;48.102;2024-02-21T14:39:00;-3.60;69.10
75489;HTU21D;64069;46.396;48.102;2024-02-21T14:41:26;-3.67;69.26
75489;HTU21D;64069;46.396;48.102;2024-02-21T14:43:53;-3.71;69.41
75489;HTU21D;64069;46.396;48.102;2024-02-21T14:46:19;-3.76;69.58
75489;HTU21D;64069;46.396;48.102;2024-02-21T14:48:45;-3.80;69.70
75489;HTU21D;64069;46.396;48.102;2024-02-21T14:51:11;-3.84;69.81
75489;HTU21D;64069;46.396;48.102;2024-02-21T14:53:37;-3.86;69.86
75489;HTU21D;64069;46.396;48.102;2024-02-21T14:56:15;-3.90;69.97
75489;HTU21D;64069;46.396;48.102;2024-02-21T14:58:48;-3.96;70.04
75489;HTU21D;64069;46.396;48.102;2024-02-21T15:01:14;-4.02;70.19
75489;HTU21D;64069;46.396;48.102;2024-02-21T15:03:41;-4.04;70.31
75489;HTU21D;64069;46.396;48.102;2024-02-21T15:06:17;-4.09;70.39
75489;HTU21D;64069;46.396;48.102;2024-02-21T15:09:08;-4.13;70.48
75489;HTU21D;64069;46.396;48.102;2024-02-21T15:11:34;-4.16;70.52
75489;HTU21D;64069;46.396;48.102;2024-02-21T15:14:00;-4.22;70.61